sensor_id;sensor_type;location;lat;lon;timestamp;pressure;altitude;pressure_sealevel;temperature;humidity
22000;BME280;11164;48.818;2.322;2024-01-30T00:01:50;101722.56;;;14.13;41.83
22000;BME280;11164;48.818;2.322;2024-01-30T00:04:16;101718.16;;;14.12;41.90
22000;BME280;11164;48.818;2.322;2024-01-30T00:06:42;101721.25;;;14.09;41.92
22000;BME280;11164;48.818;2.322;2024-01-30T00:09:07;101716.28;;;14.12;41.88
22000;BME280;11164;48.818;2.322;2024-01-30T00:11:34;101721.06;;;14.10;41.96
22000;BME280;11164;48.818;2.322;2024-01-30T00:13:59;101710.50;;;13.94;42.17
22000;BME280;11164;48.818;2.322;2024-01-30T00:16:25;101715.72;;;13.95;42.40
22000;BME280;11164;48.818;2.322;2024-01-30T00:18:53;101717.06;;;14.06;41.94
22000;BME280;11164;48.818;2.322;2024-01-30T00:21:20;101719.50;;;14.22;41.65
22000;BME280;11164;48.818;2.322;2024-01-30T00:23:45;101721.31;;;14.15;42.02
22000;BME280;11164;48.818;2.322;2024-01-30T00:26:11;101725.47;;;14.11;41.92
22000;BME280;11164;48.818;2.322;2024-01-30T00:28:40;101727.19;;;14.19;41.73
22000;BME280;11164;48.818;2.322;2024-01-30T00:31:06;101725.59;;;14.24;41.72
22000;BME280;11164;48.818;2.322;2024-01-30T00:33:31;101723.50;;;14.05;42.01
22000;BME280;11164;48.818;2.322;2024-01-30T00:35:57;101723.00;;;14.16;41.86
22000;BME280;11164;48.818;2.322;2024-01-30T00:38:22;101734.75;;;14.23;41.74
22000;BME280;11164;48.818;2.322;2024-01-30T00:40:48;101730.16;;;14.24;41.71
22000;BME280;11164;48.818;2.322;2024-01-30T00:43:13;101719.31;;;14.24;41.62
22000;BME280;11164;48.818;2.322;2024-01-30T00:45:40;101731.84;;;14.25;41.81
22000;BME280;11164;48.818;2.322;2024-01-30T00:48:06;101728.53;;;14.30;41.69
22000;BME280;11164;48.818;2.322;2024-01-30T00:50:31;101723.97;;;14.30;41.71
22000;BME280;11164;48.818;2.322;2024-01-30T00:52:56;101733.31;;;14.28;41.71
22000;BME280;11164;48.818;2.322;2024-01-30T00:55:22;101733.94;;;14.30;41.73
22000;BME280;11164;48.818;2.322;2024-01-30T00:57:47;101733.63;;;14.39;41.53
22000;BME280;11164;48.818;2.322;2024-01-30T01:00:13;101726.47;;;14.32;41.63
22000;BME280;11164;48.818;2.322;2024-01-30T01:02:41;101724.91;;;14.22;42.09
22000;BME280;11164;48.818;2.322;2024-01-30T01:05:07;101716.28;;;14.12;42.04
22000;BME280;11164;48.818;2.322;2024-01-30T01:07:33;101727.81;;;14.21;41.86
22000;BME280;11164;48.818;2.322;2024-01-30T01:09:58;101731.91;;;14.10;42.14
22000;BME280;11164;48.818;2.322;2024-01-30T01:12:24;101726.66;;;14.09;42.26
22000;BME280;11164;48.818;2.322;2024-01-30T01:14:49;101726.94;;;14.14;42.20
22000;BME280;11164;48.818;2.322;2024-01-30T01:20:36;101722.22;;;14.22;41.89
22000;BME280;11164;48.818;2.322;2024-01-30T01:23:01;101717.91;;;14.28;41.75
22000;BME280;11164;48.818;2.322;2024-01-30T01:25:27;101720.28;;;14.16;42.03
22000;BME280;11164;48.818;2.322;2024-01-30T01:27:52;101715.25;;;14.13;41.94
22000;BME280;11164;48.818;2.322;2024-01-30T01:30:18;101725.97;;;14.21;41.91
22000;BME280;11164;48.818;2.322;2024-01-30T01:32:53;101722.41;;;14.21;41.96
22000;BME280;11164;48.818;2.322;2024-01-30T01:35:23;101724.66;;;14.17;42.17
22000;BME280;11164;48.818;2.322;2024-01-30T01:37:50;101727.00;;;14.20;42.12
22000;BME280;11164;48.818;2.322;2024-01-30T01:40:23;101723.06;;;14.23;42.14
22000;BME280;11164;48.818;2.322;2024-01-30T01:42:52;101724.59;;;14.32;41.95
22000;BME280;11164;48.818;2.322;2024-01-30T01:45:18;101727.13;;;14.34;41.80
22000;BME280;11164;48.818;2.322;2024-01-30T01:47:46;101723.75;;;14.32;41.96
22000;BME280;11164;48.818;2.322;2024-01-30T01:50:13;101732.34;;;14.35;41.92
22000;BME280;11164;48.818;2.322;2024-01-30T01:52:40;101719.63;;;14.36;41.75
22000;BME280;11164;48.818;2.322;2024-01-30T01:55:06;101721.94;;;14.39;41.81
22000;BME280;11164;48.818;2.322;2024-01-30T01:57:33;101720.84;;;14.33;41.76
22000;BME280;11164;48.818;2.322;2024-01-30T02:00:00;101726.91;;;14.35;41.84
22000;BME280;11164;48.818;2.322;2024-01-30T02:02:26;101727.44;;;14.24;42.06
22000;BME280;11164;48.818;2.322;2024-01-30T02:04:56;101726.75;;;14.15;42.48
22000;BME280;11164;48.818;2.322;2024-01-30T02:07:22;101724.91;;;14.22;42.10
22000;BME280;11164;48.818;2.322;2024-01-30T02:09:47;101728.06;;;14.26;42.07
22000;BME280;11164;48.818;2.322;2024-01-30T02:12:12;101720.53;;;14.21;41.81
22000;BME280;11164;48.818;2.322;2024-01-30T02:14:45;101727.78;;;14.14;42.30
22000;BME280;11164;48.818;2.322;2024-01-30T02:17:11;101712.22;;;14.01;42.32
22000;BME280;11164;48.818;2.322;2024-01-30T02:19:37;101714.34;;;14.06;42.29
22000;BME280;11164;48.818;2.322;2024-01-30T02:22:02;101712.28;;;14.08;42.26
22000;BME280;11164;48.818;2.322;2024-01-30T02:24:28;101711.66;;;14.06;42.26
22000;BME280;11164;48.818;2.322;2024-01-30T02:26:53;101706.59;;;14.03;42.42
22000;BME280;11164;48.818;2.322;2024-01-30T02:29:18;101708.09;;;14.05;42.49
22000;BME280;11164;48.818;2.322;2024-01-30T02:31:44;101705.22;;;14.14;42.41
22000;BME280;11164;48.818;2.322;2024-01-30T02:34:11;101700.25;;;14.17;42.24
22000;BME280;11164;48.818;2.322;2024-01-30T02:36:36;101696.00;;;14.08;42.51
22000;BME280;11164;48.818;2.322;2024-01-30T02:39:02;101704.84;;;14.17;42.44
22000;BME280;11164;48.818;2.322;2024-01-30T02:41:27;101707.31;;;14.12;42.45
22000;BME280;11164;48.818;2.322;2024-01-30T02:43:53;101710.84;;;14.12;42.49
22000;BME280;11164;48.818;2.322;2024-01-30T02:46:18;101708.66;;;14.01;42.74
22000;BME280;11164;48.818;2.322;2024-01-30T02:48:43;101704.47;;;13.98;42.88
22000;BME280;11164;48.818;2.322;2024-01-30T02:51:09;101707.50;;;13.88;43.18
22000;BME280;11164;48.818;2.322;2024-01-30T02:53:34;101697.75;;;13.94;43.17
22000;BME280;11164;48.818;2.322;2024-01-30T02:55:59;101705.97;;;14.01;43.25
22000;BME280;11164;48.818;2.322;2024-01-30T02:58:25;101697.03;;;14.07;42.97
22000;BME280;11164;48.818;2.322;2024-01-30T03:00:50;101695.81;;;14.10;42.81
22000;BME280;11164;48.818;2.322;2024-01-30T03:03:15;101701.19;;;14.03;43.00
22000;BME280;11164;48.818;2.322;2024-01-30T03:05:40;101706.41;;;14.04;43.09
22000;BME280;11164;48.818;2.322;2024-01-30T03:08:06;101699.44;;;13.95;43.32
22000;BME280;11164;48.818;2.322;2024-01-30T03:10:31;101694.41;;;13.92;43.37
22000;BME280;11164;48.818;2.322;2024-01-30T03:12:56;101700.09;;;13.82;43.61
22000;BME280;11164;48.818;2.322;2024-01-30T03:15:22;101709.06;;;13.98;43.39
22000;BME280;11164;48.818;2.322;2024-01-30T03:17:48;101707.66;;;14.02;43.19
22000;BME280;11164;48.818;2.322;2024-01-30T03:20:13;101702.41;;;14.00;43.08
22000;BME280;11164;48.818;2.322;2024-01-30T03:22:38;101712.03;;;14.03;43.20
22000;BME280;11164;48.818;2.322;2024-01-30T03:25:04;101711.56;;;13.99;43.23
22000;BME280;11164;48.818;2.322;2024-01-30T03:27:29;101709.25;;;13.96;43.42
22000;BME280;11164;48.818;2.322;2024-01-30T03:29:55;101706.22;;;14.06;43.26
22000;BME280;11164;48.818;2.322;2024-01-30T03:32:20;101704.53;;;14.05;43.31
22000;BME280;11164;48.818;2.322;2024-01-30T03:34:45;101711.19;;;14.02;43.63
22000;BME280;11164;48.818;2.322;2024-01-30T03:37:11;101708.28;;;14.04;43.30
22000;BME280;11164;48.818;2.322;2024-01-30T03:39:36;101709.06;;;13.98;43.55
22000;BME280;11164;48.818;2.322;2024-01-30T03:42:02;101715.28;;;13.92;43.77
22000;BME280;11164;48.818;2.322;2024-01-30T03:44:27;101709.94;;;13.83;43.96
22000;BME280;11164;48.818;2.322;2024-01-30T03:46:52;101704.91;;;13.80;44.22
22000;BME280;11164;48.818;2.322;2024-01-30T03:49:18;101704.25;;;13.78;44.28
22000;BME280;11164;48.818;2.322;2024-01-30T03:51:43;101691.34;;;13.80;44.22
22000;BME280;11164;48.818;2.322;2024-01-30T03:54:09;101700.66;;;13.93;44.03
22000;BME280;11164;48.818;2.322;2024-01-30T03:56:35;101698.03;;;13.84;44.29
22000;BME280;11164;48.818;2.322;2024-01-30T03:59:00;101692.47;;;13.86;44.36
22000;BME280;11164;48.818;2.322;2024-01-30T04:01:27;101686.38;;;13.84;44.29
22000;BME280;11164;48.818;2.322;2024-01-30T04:03:53;101696.38;;;13.83;44.25
22000;BME280;11164;48.818;2.322;2024-01-30T04:06:18;101706.97;;;13.78;44.64
22000;BME280;11164;48.818;2.322;2024-01-30T04:08:43;101704.31;;;13.85;44.44
22000;BME280;11164;48.818;2.322;2024-01-30T04:11:09;101707.22;;;13.83;44.68
22000;BME280;11164;48.818;2.322;2024-01-30T04:13:34;101692.16;;;13.81;44.64
22000;BME280;11164;48.818;2.322;2024-01-30T04:16:00;101701.81;;;13.83;44.49
22000;BME280;11164;48.818;2.322;2024-01-30T04:18:29;101693.84;;;13.82;44.68
22000;BME280;11164;48.818;2.322;2024-01-30T04:20:54;101696.28;;;13.92;44.47
22000;BME280;11164;48.818;2.322;2024-01-30T04:23:20;101684.22;;;13.94;44.43
22000;BME280;11164;48.818;2.322;2024-01-30T04:25:45;101686.97;;;14.01;44.43
22000;BME280;11164;48.818;2.322;2024-01-30T04:28:11;101696.81;;;14.02;44.32
22000;BME280;11164;48.818;2.322;2024-01-30T04:30:39;101694.09;;;14.02;44.27
22000;BME280;11164;48.818;2.322;2024-01-30T04:33:05;101698.78;;;13.93;44.61
22000;BME280;11164;48.818;2.322;2024-01-30T04:35:30;101691.75;;;13.99;44.42
22000;BME280;11164;48.818;2.322;2024-01-30T04:37:56;101685.22;;;13.93;44.54
22000;BME280;11164;48.818;2.322;2024-01-30T04:40:21;101689.69;;;14.01;44.45
22000;BME280;11164;48.818;2.322;2024-01-30T04:42:46;101698.72;;;14.08;44.30
22000;BME280;11164;48.818;2.322;2024-01-30T04:45:12;101691.56;;;14.00;44.51
22000;BME280;11164;48.818;2.322;2024-01-30T04:47:37;101686.97;;;14.01;44.44
22000;BME280;11164;48.818;2.322;2024-01-30T04:50:05;101694.94;;;14.02;44.42
22000;BME280;11164;48.818;2.322;2024-01-30T04:52:31;101699.50;;;14.02;44.57
22000;BME280;11164;48.818;2.322;2024-01-30T04:54:56;101702.34;;;13.94;44.57
22000;BME280;11164;48.818;2.322;2024-01-30T04:57:22;101696.81;;;14.02;44.46
22000;BME280;11164;48.818;2.322;2024-01-30T04:59:47;101710.38;;;14.02;44.49
22000;BME280;11164;48.818;2.322;2024-01-30T05:02:12;101693.31;;;13.86;44.51
22000;BME280;11164;48.818;2.322;2024-01-30T05:04:38;101696.03;;;13.86;44.67
22000;BME280;11164;48.818;2.322;2024-01-30T05:07:03;101719.44;;;13.94;44.68
22000;BME280;11164;48.818;2.322;2024-01-30T05:09:29;101710.56;;;13.85;44.93
22000;BME280;11164;48.818;2.322;2024-01-30T05:11:54;101710.69;;;13.92;44.69
22000;BME280;11164;48.818;2.322;2024-01-30T05:14:20;101714.16;;;14.08;44.33
22000;BME280;11164;48.818;2.322;2024-01-30T05:16:45;101708.59;;;13.94;44.69
22000;BME280;11164;48.818;2.322;2024-01-30T05:19:15;101713.53;;;14.05;44.47
22000;BME280;11164;48.818;2.322;2024-01-30T05:21:41;101714.22;;;14.14;44.25
22000;BME280;11164;48.818;2.322;2024-01-30T05:24:06;101717.06;;;14.06;44.30
22000;BME280;11164;48.818;2.322;2024-01-30T05:26:32;101729.19;;;14.10;44.43
22000;BME280;11164;48.818;2.322;2024-01-30T05:28:57;101735.00;;;14.07;43.96
22000;BME280;11164;48.818;2.322;2024-01-30T05:31:23;101734.28;;;13.98;44.54
22000;BME280;11164;48.818;2.322;2024-01-30T05:33:51;101734.88;;;13.94;44.78
22000;BME280;11164;48.818;2.322;2024-01-30T05:36:16;101740.56;;;13.99;44.69
22000;BME280;11164;48.818;2.322;2024-01-30T05:38:42;101742.66;;;13.97;44.81
22000;BME280;11164;48.818;2.322;2024-01-30T05:41:08;101744.31;;;13.98;44.83
22000;BME280;11164;48.818;2.322;2024-01-30T05:43:33;101751.09;;;14.09;44.53
22000;BME280;11164;48.818;2.322;2024-01-30T05:45:59;101751.88;;;14.02;44.74
22000;BME280;11164;48.818;2.322;2024-01-30T05:48:24;101760.84;;;14.03;44.58
22000;BME280;11164;48.818;2.322;2024-01-30T05:50:49;101754.19;;;14.05;44.56
22000;BME280;11164;48.818;2.322;2024-01-30T05:53:15;101746.25;;;14.04;44.46
22000;BME280;11164;48.818;2.322;2024-01-30T05:55:40;101736.75;;;13.93;44.38
22000;BME280;11164;48.818;2.322;2024-01-30T05:58:06;101759.72;;;14.19;44.20
22000;BME280;11164;48.818;2.322;2024-01-30T06:00:31;101760.59;;;14.19;44.22
22000;BME280;11164;48.818;2.322;2024-01-30T06:02:56;101761.69;;;14.25;44.42
22000;BME280;11164;48.818;2.322;2024-01-30T06:05:22;101762.97;;;14.29;44.10
22000;BME280;11164;48.818;2.322;2024-01-30T06:07:47;101760.97;;;14.16;44.37
22000;BME280;11164;48.818;2.322;2024-01-30T06:10:12;101774.41;;;14.24;44.38
22000;BME280;11164;48.818;2.322;2024-01-30T06:12:38;101768.03;;;14.11;44.45
22000;BME280;11164;48.818;2.322;2024-01-30T06:15:03;101769.50;;;14.13;44.57
22000;BME280;11164;48.818;2.322;2024-01-30T06:17:29;101772.22;;;14.13;44.71
22000;BME280;11164;48.818;2.322;2024-01-30T06:19:54;101783.44;;;14.10;44.64
22000;BME280;11164;48.818;2.322;2024-01-30T06:22:20;101781.78;;;14.09;44.87
22000;BME280;11164;48.818;2.322;2024-01-30T06:24:45;101788.22;;;14.08;44.73
22000;BME280;11164;48.818;2.322;2024-01-30T06:27:13;101789.72;;;14.11;44.69
22000;BME280;11164;48.818;2.322;2024-01-30T06:29:38;101790.03;;;14.01;44.87
22000;BME280;11164;48.818;2.322;2024-01-30T06:32:04;101800.41;;;13.97;45.01
22000;BME280;11164;48.818;2.322;2024-01-30T06:34:29;101797.38;;;14.07;44.68
22000;BME280;11164;48.818;2.322;2024-01-30T06:36:54;101813.50;;;13.79;45.93
22000;BME280;11164;48.818;2.322;2024-01-30T06:39:20;101796.28;;;14.01;45.19
22000;BME280;11164;48.818;2.322;2024-01-30T06:41:45;101792.28;;;13.97;45.04
22000;BME280;11164;48.818;2.322;2024-01-30T06:44:12;101808.75;;;13.96;45.13
22000;BME280;11164;48.818;2.322;2024-01-30T06:46:38;101798.34;;;13.99;44.94
22000;BME280;11164;48.818;2.322;2024-01-30T06:49:03;101796.09;;;14.03;44.96
22000;BME280;11164;48.818;2.322;2024-01-30T06:51:29;101795.81;;;13.98;45.09
22000;BME280;11164;48.818;2.322;2024-01-30T06:53:54;101804.22;;;14.03;44.95
22000;BME280;11164;48.818;2.322;2024-01-30T06:56:19;101797.63;;;14.12;44.75
22000;BME280;11164;48.818;2.322;2024-01-30T06:58:49;101819.59;;;14.17;44.63
22000;BME280;11164;48.818;2.322;2024-01-30T07:01:15;101818.44;;;14.05;44.78
22000;BME280;11164;48.818;2.322;2024-01-30T07:03:41;101823.22;;;14.03;45.22
22000;BME280;11164;48.818;2.322;2024-01-30T07:06:06;101818.56;;;14.18;44.85
22000;BME280;11164;48.818;2.322;2024-01-30T07:08:31;101820.31;;;14.26;44.82
22000;BME280;11164;48.818;2.322;2024-01-30T07:10:57;101828.00;;;14.44;44.52
22000;BME280;11164;48.818;2.322;2024-01-30T07:13:22;101830.13;;;14.49;44.53
22000;BME280;11164;48.818;2.322;2024-01-30T07:15:48;101840.16;;;14.48;44.49
22000;BME280;11164;48.818;2.322;2024-01-30T07:18:13;101841.47;;;14.52;44.46
22000;BME280;11164;48.818;2.322;2024-01-30T07:20:39;101840.72;;;14.65;44.35
22000;BME280;11164;48.818;2.322;2024-01-30T07:23:11;101844.53;;;14.71;44.24
22000;BME280;11164;48.818;2.322;2024-01-30T07:25:41;101843.84;;;14.40;44.70
22000;BME280;11164;48.818;2.322;2024-01-30T07:28:07;101847.19;;;14.42;44.82
22000;BME280;11164;48.818;2.322;2024-01-30T07:30:35;101852.53;;;14.57;44.45
22000;BME280;11164;48.818;2.322;2024-01-30T07:33:00;101841.91;;;14.56;44.54
22000;BME280;11164;48.818;2.322;2024-01-30T07:35:25;101857.34;;;14.55;44.68
22000;BME280;11164;48.818;2.322;2024-01-30T07:37:51;101847.78;;;14.59;44.56
22000;BME280;11164;48.818;2.322;2024-01-30T07:40:17;101854.50;;;14.63;44.53
22000;BME280;11164;48.818;2.322;2024-01-30T07:42:42;101855.13;;;14.66;44.34
22000;BME280;11164;48.818;2.322;2024-01-30T07:45:08;101869.94;;;14.63;44.58
22000;BME280;11164;48.818;2.322;2024-01-30T07:47:33;101869.44;;;14.53;44.72
22000;BME280;11164;48.818;2.322;2024-01-30T07:49:58;101875.97;;;14.37;45.01
22000;BME280;11164;48.818;2.322;2024-01-30T07:52:24;101877.16;;;14.34;45.04
22000;BME280;11164;48.818;2.322;2024-01-30T07:54:50;101881.84;;;14.40;44.99
22000;BME280;11164;48.818;2.322;2024-01-30T07:57:15;101878.78;;;14.50;44.73
22000;BME280;11164;48.818;2.322;2024-01-30T07:59:42;101883.13;;;14.44;44.81
22000;BME280;11164;48.818;2.322;2024-01-30T08:02:09;101880.84;;;14.27;45.22
22000;BME280;11164;48.818;2.322;2024-01-30T08:04:34;101889.47;;;14.15;45.49
22000;BME280;11164;48.818;2.322;2024-01-30T08:06:59;101890.34;;;14.16;45.42
22000;BME280;11164;48.818;2.322;2024-01-30T08:09:25;101897.44;;;14.17;45.48
22000;BME280;11164;48.818;2.322;2024-01-30T08:11:50;101906.22;;;14.19;45.36
22000;BME280;11164;48.818;2.322;2024-01-30T08:14:15;101902.13;;;14.08;45.35
22000;BME280;11164;48.818;2.322;2024-01-30T08:16:41;101902.66;;;14.18;45.27
22000;BME280;11164;48.818;2.322;2024-01-30T08:19:06;101906.22;;;14.19;45.17
22000;BME280;11164;48.818;2.322;2024-01-30T08:21:32;101907.25;;;14.18;45.32
22000;BME280;11164;48.818;2.322;2024-01-30T08:24:05;101913.44;;;14.12;45.51
22000;BME280;11164;48.818;2.322;2024-01-30T08:26:31;101914.53;;;14.17;45.35
22000;BME280;11164;48.818;2.322;2024-01-30T08:28:57;101914.63;;;14.24;45.11
22000;BME280;11164;48.818;2.322;2024-01-30T08:31:22;101924.63;;;14.38;44.95
22000;BME280;11164;48.818;2.322;2024-01-30T08:33:48;101925.53;;;14.46;44.69
22000;BME280;11164;48.818;2.322;2024-01-30T08:36:13;101933.59;;;14.39;44.92
22000;BME280;11164;48.818;2.322;2024-01-30T08:38:39;101933.78;;;14.37;45.09
22000;BME280;11164;48.818;2.322;2024-01-30T08:41:04;101929.44;;;14.43;44.96
22000;BME280;11164;48.818;2.322;2024-01-30T08:43:30;101930.81;;;14.54;44.72
22000;BME280;11164;48.818;2.322;2024-01-30T08:45:55;101940.25;;;14.58;44.68
22000;BME280;11164;48.818;2.322;2024-01-30T08:48:22;101945.19;;;14.33;45.07
22000;BME280;11164;48.818;2.322;2024-01-30T08:50:47;101943.00;;;14.43;45.10
22000;BME280;11164;48.818;2.322;2024-01-30T08:53:13;101948.22;;;14.59;44.64
22000;BME280;11164;48.818;2.322;2024-01-30T08:55:38;101950.16;;;14.66;44.46
22000;BME280;11164;48.818;2.322;2024-01-30T08:58:04;101952.84;;;14.66;44.69
22000;BME280;11164;48.818;2.322;2024-01-30T09:00:30;101953.50;;;14.68;44.56
22000;BME280;11164;48.818;2.322;2024-01-30T09:02:55;101957.38;;;14.58;44.87
22000;BME280;11164;48.818;2.322;2024-01-30T09:05:20;101967.94;;;14.68;44.62
22000;BME280;11164;48.818;2.322;2024-01-30T09:07:46;101968.53;;;14.49;44.99
22000;BME280;11164;48.818;2.322;2024-01-30T09:10:11;101972.47;;;14.46;45.06
22000;BME280;11164;48.818;2.322;2024-01-30T09:12:37;101970.34;;;14.41;45.25
22000;BME280;11164;48.818;2.322;2024-01-30T09:15:03;101962.97;;;14.35;45.20
22000;BME280;11164;48.818;2.322;2024-01-30T09:17:29;101981.19;;;14.41;45.31
22000;BME280;11164;48.818;2.322;2024-01-30T09:19:55;101972.66;;;14.44;45.13
22000;BME280;11164;48.818;2.322;2024-01-30T09:22:20;101970.31;;;14.56;44.83
22000;BME280;11164;48.818;2.322;2024-01-30T09:24:45;101987.50;;;14.63;44.80
22000;BME280;11164;48.818;2.322;2024-01-30T09:27:11;101979.50;;;14.77;44.53
22000;BME280;11164;48.818;2.322;2024-01-30T09:29:36;101978.91;;;14.81;44.55
22000;BME280;11164;48.818;2.322;2024-01-30T09:32:01;101987.50;;;14.63;44.90
22000;BME280;11164;48.818;2.322;2024-01-30T09:34:27;101992.78;;;14.50;45.24
22000;BME280;11164;48.818;2.322;2024-01-30T09:36:52;101998.06;;;14.73;44.66
22000;BME280;11164;48.818;2.322;2024-01-30T09:39:17;101986.88;;;14.61;44.83
22000;BME280;11164;48.818;2.322;2024-01-30T09:41:48;101999.97;;;14.58;45.13
22000;BME280;11164;48.818;2.322;2024-01-30T09:44:16;101998.69;;;14.39;45.47
22000;BME280;11164;48.818;2.322;2024-01-30T09:46:42;102007.38;;;14.49;45.33
22000;BME280;11164;48.818;2.322;2024-01-30T09:49:08;102000.25;;;14.48;45.16
22000;BME280;11164;48.818;2.322;2024-01-30T09:51:34;102001.59;;;14.52;45.15
22000;BME280;11164;48.818;2.322;2024-01-30T09:54:02;102006.94;;;14.46;45.25
22000;BME280;11164;48.818;2.322;2024-01-30T09:56:28;102008.31;;;14.56;45.08
22000;BME280;11164;48.818;2.322;2024-01-30T09:58:54;102015.75;;;14.69;44.83
22000;BME280;11164;48.818;2.322;2024-01-30T10:01:19;102009.69;;;14.67;44.87
22000;BME280;11164;48.818;2.322;2024-01-30T10:03:45;102017.81;;;14.82;44.60
22000;BME280;11164;48.818;2.322;2024-01-30T10:06:11;102022.53;;;14.80;44.83
22000;BME280;11164;48.818;2.322;2024-01-30T10:08:36;102023.91;;;14.69;44.59
22000;BME280;11164;48.818;2.322;2024-01-30T10:11:02;102017.53;;;14.77;44.86
22000;BME280;11164;48.818;2.322;2024-01-30T10:13:28;102027.06;;;14.88;44.80
22000;BME280;11164;48.818;2.322;2024-01-30T10:15:54;102026.22;;;14.87;44.88
22000;BME280;11164;48.818;2.322;2024-01-30T10:18:20;102032.03;;;14.84;44.89
22000;BME280;11164;48.818;2.322;2024-01-30T10:20:47;102037.66;;;14.68;45.33
22000;BME280;11164;48.818;2.322;2024-01-30T10:23:13;102044.50;;;14.78;45.28
22000;BME280;11164;48.818;2.322;2024-01-30T10:25:38;102045.88;;;14.74;45.31
22000;BME280;11164;48.818;2.322;2024-01-30T10:28:04;102045.63;;;14.69;45.38
22000;BME280;11164;48.818;2.322;2024-01-30T10:30:29;102046.91;;;14.88;45.16
22000;BME280;11164;48.818;2.322;2024-01-30T10:32:54;102045.81;;;14.83;45.16
22000;BME280;11164;48.818;2.322;2024-01-30T10:35:20;102053.66;;;14.77;45.28
22000;BME280;11164;48.818;2.322;2024-01-30T10:37:48;102048.78;;;14.73;45.62
22000;BME280;11164;48.818;2.322;2024-01-30T10:40:14;102050.00;;;14.85;45.35
22000;BME280;11164;48.818;2.322;2024-01-30T10:42:45;102052.94;;;15.05;45.27
22000;BME280;11164;48.818;2.322;2024-01-30T10:45:12;102054.69;;;15.13;44.97
22000;BME280;11164;48.818;2.322;2024-01-30T10:47:39;102053.09;;;15.18;44.97
22000;BME280;11164;48.818;2.322;2024-01-30T10:50:05;102056.09;;;15.30;44.80
22000;BME280;11164;48.818;2.322;2024-01-30T10:52:32;102061.03;;;15.42;44.55
22000;BME280;11164;48.818;2.322;2024-01-30T10:54:58;102061.47;;;15.45;44.52
22000;BME280;11164;48.818;2.322;2024-01-30T10:57:24;102049.25;;;15.34;44.89
22000;BME280;11164;48.818;2.322;2024-01-30T10:59:51;102060.84;;;15.43;44.52
22000;BME280;11164;48.818;2.322;2024-01-30T11:02:18;102062.13;;;15.47;44.63
22000;BME280;11164;48.818;2.322;2024-01-30T11:04:45;102065.53;;;15.56;44.77
22000;BME280;11164;48.818;2.322;2024-01-30T11:07:17;102060.53;;;15.53;44.82
22000;BME280;11164;48.818;2.322;2024-01-30T11:12:26;102059.22;;;15.49;44.94
22000;BME280;11164;48.818;2.322;2024-01-30T11:15:08;102065.75;;;15.33;45.26
22000;BME280;11164;48.818;2.322;2024-01-30T11:17:50;102064.84;;;15.26;45.47
22000;BME280;11164;48.818;2.322;2024-01-30T11:20:25;102061.44;;;15.67;44.50
22000;BME280;11164;48.818;2.322;2024-01-30T11:22:52;102066.88;;;15.67;44.51
22000;BME280;11164;48.818;2.322;2024-01-30T11:25:20;102064.06;;;15.75;44.51
22000;BME280;11164;48.818;2.322;2024-01-30T11:27:46;102065.94;;;15.74;44.29
22000;BME280;11164;48.818;2.322;2024-01-30T11:30:41;102057.47;;;15.91;43.84
22000;BME280;11164;48.818;2.322;2024-01-30T11:35:35;102052.03;;;15.91;44.38
22000;BME280;11164;48.818;2.322;2024-01-30T11:38:01;102049.69;;;15.81;44.58
22000;BME280;11164;48.818;2.322;2024-01-30T11:40:28;102059.78;;;15.66;44.73
22000;BME280;11164;48.818;2.322;2024-01-30T11:42:55;102061.41;;;15.60;44.86
22000;BME280;11164;48.818;2.322;2024-01-30T11:45:21;102050.97;;;15.64;44.84
22000;BME280;11164;48.818;2.322;2024-01-30T11:47:46;102052.00;;;15.63;44.90
22000;BME280;11164;48.818;2.322;2024-01-30T11:50:12;102058.13;;;15.71;44.71
22000;BME280;11164;48.818;2.322;2024-01-30T11:52:38;102052.00;;;15.84;44.51
22000;BME280;11164;48.818;2.322;2024-01-30T11:55:04;102066.69;;;15.90;44.38
22000;BME280;11164;48.818;2.322;2024-01-30T11:57:29;102064.25;;;15.52;44.60
22000;BME280;11164;48.818;2.322;2024-01-30T11:59:55;102064.13;;;15.38;45.13
22000;BME280;11164;48.818;2.322;2024-01-30T12:02:20;102057.53;;;15.26;45.09
22000;BME280;11164;48.818;2.322;2024-01-30T12:04:45;102063.75;;;15.42;44.83
22000;BME280;11164;48.818;2.322;2024-01-30T12:07:11;102059.88;;;15.29;44.69
22000;BME280;11164;48.818;2.322;2024-01-30T12:09:38;102067.91;;;15.37;44.48
22000;BME280;11164;48.818;2.322;2024-01-30T12:12:03;102062.31;;;15.46;44.35
22000;BME280;11164;48.818;2.322;2024-01-30T12:14:29;102070.22;;;15.41;44.38
22000;BME280;11164;48.818;2.322;2024-01-30T12:16:55;102067.91;;;15.37;44.31
22000;BME280;11164;48.818;2.322;2024-01-30T12:19:24;102064.13;;;15.38;44.25
22000;BME280;11164;48.818;2.322;2024-01-30T12:21:59;102065.28;;;15.51;43.63
22000;BME280;11164;48.818;2.322;2024-01-30T12:24:25;102071.03;;;15.63;43.91
22000;BME280;11164;48.818;2.322;2024-01-30T12:26:51;102074.16;;;15.38;44.56
22000;BME280;11164;48.818;2.322;2024-01-30T12:29:17;102080.34;;;15.25;44.36
22000;BME280;11164;48.818;2.322;2024-01-30T12:31:42;102071.56;;;15.30;44.28
22000;BME280;11164;48.818;2.322;2024-01-30T12:34:09;102077.13;;;15.22;44.28
22000;BME280;11164;48.818;2.322;2024-01-30T12:36:34;102068.28;;;15.34;44.02
22000;BME280;11164;48.818;2.322;2024-01-30T12:39:00;102058.63;;;15.32;44.00
22000;BME280;11164;48.818;2.322;2024-01-30T12:41:26;102072.75;;;15.42;43.60
22000;BME280;11164;48.818;2.322;2024-01-30T12:43:54;102063.19;;;15.46;43.41
22000;BME280;11164;48.818;2.322;2024-01-30T12:46:19;102071.00;;;15.34;43.59
22000;BME280;11164;48.818;2.322;2024-01-30T12:48:44;102073.59;;;15.21;43.74
22000;BME280;11164;48.818;2.322;2024-01-30T12:51:10;102078.63;;;15.24;43.61
22000;BME280;11164;48.818;2.322;2024-01-30T12:53:35;102073.59;;;15.43;43.22